Accueil
METAR-TAF:

METAR-TAF

Aéroports :

Aéroport de Brive-Vallée de la Dordogne

Brive-la-Gaillarde, France

latitude: 45-02-28N, longitude: 001-28-59E, altitude: 311 m

Observation

Le bulletin a été fait il y a 33 minutes, à 16:00 UTC
Vent 10 kt de nord/nord-ouest
Température 5°C
Humidité 70%
Pression 1020 hPa
Visibilité 10 km ou plus
Nuages fragmentés à une hauteur de 4600 ft

METAR: LFSL 211600Z AUTO 34010KT 9999 BKN046 05/M00 Q1020 NOSIG

Heure: 17:33 (16:33 UTC)

Prévision

Le bulletin a été fait il y a 2 heures et 33 minutes, à 14:00 UTC
Prévision valable du 21 à 15 UTC au 21 à 24 UTC
Vent 6 kt de nord-ouest
Visibilité 10 km ou plus
Nuages épars à une hauteur de 2000 ft
Nuages fragmentés à une hauteur de 4000 ft
Evoluant progressivement
du 21 à 19 UTC au 21 à 21 UTC
Visibilité 10 km ou plus
pas de nuages en-dessous de 1500 mètres et pas de cumulonimbus.

TAF: LFSL 211400Z 2115/2124 31006KT 9999 SCT020 BKN040 BECMG 2119/2121 CAVOK

Observations et prévisions météorologiques de plus de 4000 aéroports (messages METAR et TAF).

Les stations disponibles sont représentées par des disques jaunes et rouges sur la carte.

Passer la souris dessus pour voir le nom de la station.

Cliquer dessus pour voir les observations et prévisions météorologiques.

Pour changer de carte: cliquez sur les boutons verts avec une croix noire pour zoomer, sur le bouton vert avec un tiret pour effectuer un zoom arrière, ou sur les flèches vertes pour les cartes adjacentes.


METAR-TAF: